sensor_id;sensor_type;location;lat;lon;timestamp;P1;durP1;ratioP1;P2;durP2;ratioP2
35330;SDS011;21441;52.190;20.910;2022-12-29T00:00:12;10.85;;;5.68;;
35330;SDS011;21441;52.190;20.910;2022-12-29T00:03:00;10.30;;;5.75;;
35330;SDS011;21441;52.190;20.910;2022-12-29T00:05:27;13.45;;;6.10;;
35330;SDS011;21441;52.190;20.910;2022-12-29T00:07:55;8.57;;;5.22;;
35330;SDS011;21441;52.190;20.910;2022-12-29T00:10:22;10.90;;;5.45;;
35330;SDS011;21441;52.190;20.910;2022-12-29T00:12:51;9.02;;;5.70;;
35330;SDS011;21441;52.190;20.910;2022-12-29T00:15:36;10.55;;;5.90;;
35330;SDS011;21441;52.190;20.910;2022-12-29T00:18:06;9.60;;;5.38;;
35330;SDS011;21441;52.190;20.910;2022-12-29T00:20:34;8.00;;;5.50;;
35330;SDS011;21441;52.190;20.910;2022-12-29T00:23:20;10.98;;;6.47;;
35330;SDS011;21441;52.190;20.910;2022-12-29T00:26:08;9.23;;;4.90;;
35330;SDS011;21441;52.190;20.910;2022-12-29T00:28:57;9.00;;;6.25;;
35330;SDS011;21441;52.190;20.910;2022-12-29T00:31:42;11.32;;;5.57;;
35330;SDS011;21441;52.190;20.910;2022-12-29T00:34:27;14.15;;;7.05;;
35330;SDS011;21441;52.190;20.910;2022-12-29T00:37:12;14.18;;;7.30;;
35330;SDS011;21441;52.190;20.910;2022-12-29T00:39:39;13.90;;;6.72;;
35330;SDS011;21441;52.190;20.910;2022-12-29T00:42:25;10.02;;;6.35;;
35330;SDS011;21441;52.190;20.910;2022-12-29T00:45:07;12.95;;;6.05;;
35330;SDS011;21441;52.190;20.910;2022-12-29T00:47:35;8.38;;;4.97;;
35330;SDS011;21441;52.190;20.910;2022-12-29T00:50:03;8.10;;;4.97;;
35330;SDS011;21441;52.190;20.910;2022-12-29T00:52:30;11.43;;;5.30;;
35330;SDS011;21441;52.190;20.910;2022-12-29T00:54:57;10.52;;;5.03;;
35330;SDS011;21441;52.190;20.910;2022-12-29T00:57:25;10.35;;;4.55;;
35330;SDS011;21441;52.190;20.910;2022-12-29T00:59:52;8.77;;;5.00;;
35330;SDS011;21441;52.190;20.910;2022-12-29T01:02:21;7.88;;;5.10;;
35330;SDS011;21441;52.190;20.910;2022-12-29T01:04:48;14.25;;;5.30;;
35330;SDS011;21441;52.190;20.910;2022-12-29T01:07:16;8.82;;;4.65;;
35330;SDS011;21441;52.190;20.910;2022-12-29T01:09:43;7.90;;;5.07;;
35330;SDS011;21441;52.190;20.910;2022-12-29T01:12:43;9.05;;;3.95;;
35330;SDS011;21441;52.190;20.910;2022-12-29T01:15:11;8.75;;;4.95;;
35330;SDS011;21441;52.190;20.910;2022-12-29T01:17:42;9.00;;;5.20;;
35330;SDS011;21441;52.190;20.910;2022-12-29T01:20:10;6.03;;;3.88;;
35330;SDS011;21441;52.190;20.910;2022-12-29T01:22:39;10.57;;;5.80;;
35330;SDS011;21441;52.190;20.910;2022-12-29T01:25:08;7.00;;;4.22;;
35330;SDS011;21441;52.190;20.910;2022-12-29T01:27:35;9.38;;;4.78;;
35330;SDS011;21441;52.190;20.910;2022-12-29T01:30:03;10.32;;;6.05;;
35330;SDS011;21441;52.190;20.910;2022-12-29T01:32:32;10.40;;;6.03;;
35330;SDS011;21441;52.190;20.910;2022-12-29T01:35:01;11.02;;;5.35;;
35330;SDS011;21441;52.190;20.910;2022-12-29T01:37:28;11.00;;;6.15;;
35330;SDS011;21441;52.190;20.910;2022-12-29T01:39:56;8.32;;;4.90;;
35330;SDS011;21441;52.190;20.910;2022-12-29T01:42:24;11.75;;;4.53;;
35330;SDS011;21441;52.190;20.910;2022-12-29T01:44:53;10.55;;;4.93;;
35330;SDS011;21441;52.190;20.910;2022-12-29T01:47:26;7.45;;;4.53;;
35330;SDS011;21441;52.190;20.910;2022-12-29T01:50:00;7.45;;;4.78;;
35330;SDS011;21441;52.190;20.910;2022-12-29T01:52:33;9.15;;;5.00;;
35330;SDS011;21441;52.190;20.910;2022-12-29T01:55:04;9.55;;;5.50;;
35330;SDS011;21441;52.190;20.910;2022-12-29T01:57:33;7.32;;;5.00;;
35330;SDS011;21441;52.190;20.910;2022-12-29T02:00:05;7.55;;;3.75;;
35330;SDS011;21441;52.190;20.910;2022-12-29T02:02:35;8.55;;;5.13;;
35330;SDS011;21441;52.190;20.910;2022-12-29T02:05:07;8.38;;;4.85;;
35330;SDS011;21441;52.190;20.910;2022-12-29T02:07:38;8.20;;;4.65;;
35330;SDS011;21441;52.190;20.910;2022-12-29T02:10:07;8.70;;;4.68;;
35330;SDS011;21441;52.190;20.910;2022-12-29T02:12:35;7.95;;;4.72;;
35330;SDS011;21441;52.190;20.910;2022-12-29T02:15:03;8.82;;;4.40;;
35330;SDS011;21441;52.190;20.910;2022-12-29T02:17:36;8.77;;;5.25;;
35330;SDS011;21441;52.190;20.910;2022-12-29T02:26:35;8.25;;;3.92;;
35330;SDS011;21441;52.190;20.910;2022-12-29T02:32:22;11.35;;;4.20;;
35330;SDS011;21441;52.190;20.910;2022-12-29T02:34:59;7.53;;;3.85;;
35330;SDS011;21441;52.190;20.910;2022-12-29T02:37:34;6.00;;;3.83;;
35330;SDS011;21441;52.190;20.910;2022-12-29T02:40:10;9.55;;;4.18;;
35330;SDS011;21441;52.190;20.910;2022-12-29T02:42:50;6.97;;;4.10;;
35330;SDS011;21441;52.190;20.910;2022-12-29T02:45:25;5.97;;;3.72;;
35330;SDS011;21441;52.190;20.910;2022-12-29T02:48:01;6.68;;;4.30;;
35330;SDS011;21441;52.190;20.910;2022-12-29T02:50:36;5.47;;;3.30;;
35330;SDS011;21441;52.190;20.910;2022-12-29T02:53:06;6.82;;;4.07;;
35330;SDS011;21441;52.190;20.910;2022-12-29T02:55:38;4.22;;;3.25;;
35330;SDS011;21441;52.190;20.910;2022-12-29T02:58:13;7.63;;;4.10;;
35330;SDS011;21441;52.190;20.910;2022-12-29T03:00:48;5.53;;;3.85;;
35330;SDS011;21441;52.190;20.910;2022-12-29T03:03:26;9.63;;;4.20;;
35330;SDS011;21441;52.190;20.910;2022-12-29T03:06:12;7.07;;;4.13;;
35330;SDS011;21441;52.190;20.910;2022-12-29T03:08:52;6.85;;;3.78;;
35330;SDS011;21441;52.190;20.910;2022-12-29T03:11:27;7.60;;;4.13;;
35330;SDS011;21441;52.190;20.910;2022-12-29T03:14:18;7.05;;;3.97;;
35330;SDS011;21441;52.190;20.910;2022-12-29T03:17:14;5.55;;;3.63;;
35330;SDS011;21441;52.190;20.910;2022-12-29T03:19:53;9.48;;;5.07;;
35330;SDS011;21441;52.190;20.910;2022-12-29T03:22:29;7.15;;;3.95;;
35330;SDS011;21441;52.190;20.910;2022-12-29T03:25:02;7.63;;;4.18;;
35330;SDS011;21441;52.190;20.910;2022-12-29T03:27:34;9.13;;;4.35;;
35330;SDS011;21441;52.190;20.910;2022-12-29T03:30:06;7.80;;;4.68;;
35330;SDS011;21441;52.190;20.910;2022-12-29T03:32:35;7.15;;;4.93;;
35330;SDS011;21441;52.190;20.910;2022-12-29T03:35:06;8.27;;;4.30;;
35330;SDS011;21441;52.190;20.910;2022-12-29T03:37:39;8.10;;;4.60;;
35330;SDS011;21441;52.190;20.910;2022-12-29T03:40:10;6.30;;;3.88;;
35330;SDS011;21441;52.190;20.910;2022-12-29T03:42:38;9.07;;;4.18;;
35330;SDS011;21441;52.190;20.910;2022-12-29T03:45:07;5.85;;;4.30;;
35330;SDS011;21441;52.190;20.910;2022-12-29T03:47:36;6.33;;;4.10;;
35330;SDS011;21441;52.190;20.910;2022-12-29T03:50:06;7.90;;;3.78;;
35330;SDS011;21441;52.190;20.910;2022-12-29T03:55:01;7.32;;;4.10;;
35330;SDS011;21441;52.190;20.910;2022-12-29T03:57:29;6.30;;;4.53;;
35330;SDS011;21441;52.190;20.910;2022-12-29T03:59:56;8.93;;;4.93;;
35330;SDS011;21441;52.190;20.910;2022-12-29T04:02:24;7.90;;;4.50;;
35330;SDS011;21441;52.190;20.910;2022-12-29T04:04:51;9.52;;;4.32;;
35330;SDS011;21441;52.190;20.910;2022-12-29T04:07:20;7.55;;;3.75;;
35330;SDS011;21441;52.190;20.910;2022-12-29T04:09:47;7.68;;;4.28;;
35330;SDS011;21441;52.190;20.910;2022-12-29T04:12:15;7.55;;;4.75;;
35330;SDS011;21441;52.190;20.910;2022-12-29T04:14:42;9.00;;;3.97;;
35330;SDS011;21441;52.190;20.910;2022-12-29T04:17:10;6.03;;;4.25;;
35330;SDS011;21441;52.190;20.910;2022-12-29T04:19:37;7.93;;;4.03;;
35330;SDS011;21441;52.190;20.910;2022-12-29T04:22:06;8.55;;;4.93;;
35330;SDS011;21441;52.190;20.910;2022-12-29T04:24:34;8.00;;;4.95;;
35330;SDS011;21441;52.190;20.910;2022-12-29T04:27:02;6.13;;;4.65;;
35330;SDS011;21441;52.190;20.910;2022-12-29T04:29:30;9.60;;;5.70;;
35330;SDS011;21441;52.190;20.910;2022-12-29T04:31:57;7.32;;;4.68;;
35330;SDS011;21441;52.190;20.910;2022-12-29T04:34:25;9.82;;;5.00;;
35330;SDS011;21441;52.190;20.910;2022-12-29T04:36:52;10.60;;;5.38;;
35330;SDS011;21441;52.190;20.910;2022-12-29T04:39:19;8.55;;;5.25;;
35330;SDS011;21441;52.190;20.910;2022-12-29T04:41:48;8.18;;;5.38;;
35330;SDS011;21441;52.190;20.910;2022-12-29T04:44:16;6.38;;;4.93;;
35330;SDS011;21441;52.190;20.910;2022-12-29T04:46:43;7.97;;;5.03;;
35330;SDS011;21441;52.190;20.910;2022-12-29T04:49:10;11.88;;;6.35;;
35330;SDS011;21441;52.190;20.910;2022-12-29T04:51:38;10.98;;;5.47;;
35330;SDS011;21441;52.190;20.910;2022-12-29T04:54:06;9.25;;;5.70;;
35330;SDS011;21441;52.190;20.910;2022-12-29T04:56:33;12.10;;;6.30;;
35330;SDS011;21441;52.190;20.910;2022-12-29T04:59:02;12.23;;;7.15;;
35330;SDS011;21441;52.190;20.910;2022-12-29T05:01:30;6.55;;;4.97;;
35330;SDS011;21441;52.190;20.910;2022-12-29T05:03:58;12.20;;;6.57;;
35330;SDS011;21441;52.190;20.910;2022-12-29T05:06:25;11.73;;;6.85;;
35330;SDS011;21441;52.190;20.910;2022-12-29T05:08:53;14.23;;;7.43;;
35330;SDS011;21441;52.190;20.910;2022-12-29T05:11:20;12.30;;;6.60;;
35330;SDS011;21441;52.190;20.910;2022-12-29T05:13:47;11.35;;;6.32;;
35330;SDS011;21441;52.190;20.910;2022-12-29T05:16:16;11.40;;;7.15;;
35330;SDS011;21441;52.190;20.910;2022-12-29T05:18:44;11.43;;;6.10;;
35330;SDS011;21441;52.190;20.910;2022-12-29T05:21:11;12.25;;;7.38;;
35330;SDS011;21441;52.190;20.910;2022-12-29T05:23:39;10.75;;;5.75;;
35330;SDS011;21441;52.190;20.910;2022-12-29T05:26:06;10.80;;;7.00;;
35330;SDS011;21441;52.190;20.910;2022-12-29T05:28:33;10.00;;;5.90;;
35330;SDS011;21441;52.190;20.910;2022-12-29T05:31:01;8.02;;;5.80;;
35330;SDS011;21441;52.190;20.910;2022-12-29T05:33:30;12.82;;;6.43;;
35330;SDS011;21441;52.190;20.910;2022-12-29T05:36:03;12.43;;;6.50;;
35330;SDS011;21441;52.190;20.910;2022-12-29T05:38:31;11.27;;;6.10;;
35330;SDS011;21441;52.190;20.910;2022-12-29T05:40:58;11.55;;;6.72;;
35330;SDS011;21441;52.190;20.910;2022-12-29T05:43:26;13.45;;;7.07;;
35330;SDS011;21441;52.190;20.910;2022-12-29T05:45:53;10.85;;;6.95;;
35330;SDS011;21441;52.190;20.910;2022-12-29T05:48:22;13.25;;;6.30;;
35330;SDS011;21441;52.190;20.910;2022-12-29T05:50:51;9.98;;;5.72;;
35330;SDS011;21441;52.190;20.910;2022-12-29T05:53:19;11.38;;;5.85;;
35330;SDS011;21441;52.190;20.910;2022-12-29T05:55:47;12.93;;;5.90;;
35330;SDS011;21441;52.190;20.910;2022-12-29T05:58:15;11.18;;;5.32;;
35330;SDS011;21441;52.190;20.910;2022-12-29T06:00:43;11.88;;;6.80;;
35330;SDS011;21441;52.190;20.910;2022-12-29T06:03:10;11.80;;;6.15;;
35330;SDS011;21441;52.190;20.910;2022-12-29T06:05:38;11.38;;;6.35;;
35330;SDS011;21441;52.190;20.910;2022-12-29T06:08:07;10.57;;;6.22;;
35330;SDS011;21441;52.190;20.910;2022-12-29T06:10:35;10.27;;;6.60;;
35330;SDS011;21441;52.190;20.910;2022-12-29T06:13:02;12.57;;;6.07;;
35330;SDS011;21441;52.190;20.910;2022-12-29T06:15:31;10.38;;;6.13;;
35330;SDS011;21441;52.190;20.910;2022-12-29T06:18:02;11.00;;;5.72;;
35330;SDS011;21441;52.190;20.910;2022-12-29T06:20:29;9.18;;;5.13;;
35330;SDS011;21441;52.190;20.910;2022-12-29T06:22:57;10.85;;;5.63;;
35330;SDS011;21441;52.190;20.910;2022-12-29T06:25:25;9.43;;;5.93;;
35330;SDS011;21441;52.190;20.910;2022-12-29T06:27:54;11.75;;;6.68;;
35330;SDS011;21441;52.190;20.910;2022-12-29T06:30:21;10.60;;;6.13;;
35330;SDS011;21441;52.190;20.910;2022-12-29T06:32:49;9.40;;;5.85;;
35330;SDS011;21441;52.190;20.910;2022-12-29T06:35:17;13.07;;;6.28;;
35330;SDS011;21441;52.190;20.910;2022-12-29T06:37:44;9.13;;;5.80;;
35330;SDS011;21441;52.190;20.910;2022-12-29T06:40:11;13.45;;;6.18;;
35330;SDS011;21441;52.190;20.910;2022-12-29T06:42:40;9.93;;;6.18;;
35330;SDS011;21441;52.190;20.910;2022-12-29T06:45:08;8.25;;;5.00;;
35330;SDS011;21441;52.190;20.910;2022-12-29T06:47:36;9.75;;;5.60;;
35330;SDS011;21441;52.190;20.910;2022-12-29T06:50:04;10.80;;;6.78;;
35330;SDS011;21441;52.190;20.910;2022-12-29T06:52:32;10.73;;;6.55;;
35330;SDS011;21441;52.190;20.910;2022-12-29T06:55:00;10.75;;;5.93;;
35330;SDS011;21441;52.190;20.910;2022-12-29T06:57:27;10.30;;;6.50;;
35330;SDS011;21441;52.190;20.910;2022-12-29T06:59:56;10.30;;;6.75;;
35330;SDS011;21441;52.190;20.910;2022-12-29T07:02:23;10.77;;;7.45;;
35330;SDS011;21441;52.190;20.910;2022-12-29T07:04:51;9.25;;;6.72;;
35330;SDS011;21441;52.190;20.910;2022-12-29T07:07:19;8.60;;;5.18;;
35330;SDS011;21441;52.190;20.910;2022-12-29T07:09:47;7.53;;;4.65;;
35330;SDS011;21441;52.190;20.910;2022-12-29T07:12:14;11.05;;;5.75;;
35330;SDS011;21441;52.190;20.910;2022-12-29T07:14:42;8.75;;;4.45;;
35330;SDS011;21441;52.190;20.910;2022-12-29T07:17:11;8.77;;;4.63;;
35330;SDS011;21441;52.190;20.910;2022-12-29T07:19:38;10.40;;;5.20;;
35330;SDS011;21441;52.190;20.910;2022-12-29T07:22:06;8.00;;;5.95;;
35330;SDS011;21441;52.190;20.910;2022-12-29T07:24:33;7.82;;;4.30;;
35330;SDS011;21441;52.190;20.910;2022-12-29T07:27:01;7.47;;;4.38;;
35330;SDS011;21441;52.190;20.910;2022-12-29T07:29:29;20.98;;;5.78;;
35330;SDS011;21441;52.190;20.910;2022-12-29T07:31:56;6.47;;;4.57;;
35330;SDS011;21441;52.190;20.910;2022-12-29T07:34:25;6.20;;;4.28;;
35330;SDS011;21441;52.190;20.910;2022-12-29T07:36:52;6.40;;;4.38;;
35330;SDS011;21441;52.190;20.910;2022-12-29T07:39:20;11.30;;;5.60;;
35330;SDS011;21441;52.190;20.910;2022-12-29T07:41:48;8.70;;;5.85;;
35330;SDS011;21441;52.190;20.910;2022-12-29T07:44:15;6.40;;;4.72;;
35330;SDS011;21441;52.190;20.910;2022-12-29T07:46:43;7.05;;;4.93;;
35330;SDS011;21441;52.190;20.910;2022-12-29T07:49:10;8.90;;;5.13;;
35330;SDS011;21441;52.190;20.910;2022-12-29T07:51:39;7.53;;;5.28;;
35330;SDS011;21441;52.190;20.910;2022-12-29T07:54:06;8.82;;;4.82;;
35330;SDS011;21441;52.190;20.910;2022-12-29T07:56:35;10.40;;;4.50;;
35330;SDS011;21441;52.190;20.910;2022-12-29T07:59:03;8.25;;;4.75;;
35330;SDS011;21441;52.190;20.910;2022-12-29T08:01:30;7.40;;;4.72;;
35330;SDS011;21441;52.190;20.910;2022-12-29T08:03:58;9.07;;;5.50;;
35330;SDS011;21441;52.190;20.910;2022-12-29T08:06:25;9.05;;;4.82;;
35330;SDS011;21441;52.190;20.910;2022-12-29T08:08:56;9.07;;;5.00;;
35330;SDS011;21441;52.190;20.910;2022-12-29T08:11:23;7.10;;;5.22;;
35330;SDS011;21441;52.190;20.910;2022-12-29T08:13:51;10.15;;;4.55;;
35330;SDS011;21441;52.190;20.910;2022-12-29T08:16:18;6.60;;;4.05;;
35330;SDS011;21441;52.190;20.910;2022-12-29T08:18:46;7.75;;;4.15;;
35330;SDS011;21441;52.190;20.910;2022-12-29T08:21:13;9.35;;;5.55;;
35330;SDS011;21441;52.190;20.910;2022-12-29T08:23:41;7.30;;;4.22;;
35330;SDS011;21441;52.190;20.910;2022-12-29T08:26:10;7.45;;;4.43;;
35330;SDS011;21441;52.190;20.910;2022-12-29T08:28:38;5.13;;;3.70;;
35330;SDS011;21441;52.190;20.910;2022-12-29T08:31:06;8.05;;;4.03;;
35330;SDS011;21441;52.190;20.910;2022-12-29T08:33:33;6.57;;;3.90;;
35330;SDS011;21441;52.190;20.910;2022-12-29T08:36:01;7.15;;;3.83;;
35330;SDS011;21441;52.190;20.910;2022-12-29T08:38:29;5.90;;;3.38;;
35330;SDS011;21441;52.190;20.910;2022-12-29T08:40:56;7.63;;;4.40;;
35330;SDS011;21441;52.190;20.910;2022-12-29T08:43:27;6.35;;;3.30;;
35330;SDS011;21441;52.190;20.910;2022-12-29T08:45:55;8.85;;;3.75;;
35330;SDS011;21441;52.190;20.910;2022-12-29T08:48:24;6.55;;;4.75;;
35330;SDS011;21441;52.190;20.910;2022-12-29T08:50:51;7.05;;;3.90;;
35330;SDS011;21441;52.190;20.910;2022-12-29T08:53:19;6.35;;;3.80;;
35330;SDS011;21441;52.190;20.910;2022-12-29T08:55:54;6.88;;;4.05;;
35330;SDS011;21441;52.190;20.910;2022-12-29T08:58:23;7.05;;;3.85;;
35330;SDS011;21441;52.190;20.910;2022-12-29T09:00:53;7.63;;;3.88;;
35330;SDS011;21441;52.190;20.910;2022-12-29T09:03:21;8.15;;;4.20;;
35330;SDS011;21441;52.190;20.910;2022-12-29T09:05:50;7.05;;;4.07;;
35330;SDS011;21441;52.190;20.910;2022-12-29T09:08:17;7.78;;;4.18;;
35330;SDS011;21441;52.190;20.910;2022-12-29T09:10:45;5.68;;;3.60;;
35330;SDS011;21441;52.190;20.910;2022-12-29T09:13:13;5.72;;;4.07;;
35330;SDS011;21441;52.190;20.910;2022-12-29T09:15:41;5.78;;;3.85;;
35330;SDS011;21441;52.190;20.910;2022-12-29T09:18:11;5.90;;;3.70;;
35330;SDS011;21441;52.190;20.910;2022-12-29T09:20:38;6.28;;;3.88;;
35330;SDS011;21441;52.190;20.910;2022-12-29T09:23:06;6.00;;;3.70;;
35330;SDS011;21441;52.190;20.910;2022-12-29T09:25:33;7.03;;;3.50;;
35330;SDS011;21441;52.190;20.910;2022-12-29T09:28:01;5.28;;;3.67;;
35330;SDS011;21441;52.190;20.910;2022-12-29T09:30:33;7.28;;;3.75;;
35330;SDS011;21441;52.190;20.910;2022-12-29T09:33:00;7.30;;;3.80;;
35330;SDS011;21441;52.190;20.910;2022-12-29T09:35:29;5.35;;;3.30;;
35330;SDS011;21441;52.190;20.910;2022-12-29T09:37:56;4.65;;;3.15;;
35330;SDS011;21441;52.190;20.910;2022-12-29T09:40:25;4.85;;;3.40;;
35330;SDS011;21441;52.190;20.910;2022-12-29T09:43:04;6.10;;;3.92;;
35330;SDS011;21441;52.190;20.910;2022-12-29T09:45:44;6.10;;;4.10;;
35330;SDS011;21441;52.190;20.910;2022-12-29T09:48:17;6.40;;;3.95;;
35330;SDS011;21441;52.190;20.910;2022-12-29T09:50:51;6.00;;;3.63;;
35330;SDS011;21441;52.190;20.910;2022-12-29T09:53:25;4.85;;;3.75;;
35330;SDS011;21441;52.190;20.910;2022-12-29T09:55:58;7.60;;;4.82;;
35330;SDS011;21441;52.190;20.910;2022-12-29T09:58:30;7.85;;;5.70;;
35330;SDS011;21441;52.190;20.910;2022-12-29T10:01:03;7.22;;;3.40;;
35330;SDS011;21441;52.190;20.910;2022-12-29T10:03:36;8.23;;;3.70;;
35330;SDS011;21441;52.190;20.910;2022-12-29T10:06:15;7.93;;;4.45;;
35330;SDS011;21441;52.190;20.910;2022-12-29T10:08:49;8.25;;;4.28;;
35330;SDS011;21441;52.190;20.910;2022-12-29T10:11:29;8.50;;;3.10;;
35330;SDS011;21441;52.190;20.910;2022-12-29T10:14:22;7.32;;;3.78;;
35330;SDS011;21441;52.190;20.910;2022-12-29T10:17:01;8.65;;;4.10;;
35330;SDS011;21441;52.190;20.910;2022-12-29T10:19:48;5.97;;;3.72;;
35330;SDS011;21441;52.190;20.910;2022-12-29T10:22:28;6.72;;;4.10;;
35330;SDS011;21441;52.190;20.910;2022-12-29T10:25:08;9.43;;;4.60;;
35330;SDS011;21441;52.190;20.910;2022-12-29T10:27:41;7.38;;;3.97;;
35330;SDS011;21441;52.190;20.910;2022-12-29T10:30:12;8.45;;;4.55;;
35330;SDS011;21441;52.190;20.910;2022-12-29T10:32:42;8.95;;;4.28;;
35330;SDS011;21441;52.190;20.910;2022-12-29T10:35:14;10.27;;;5.18;;
35330;SDS011;21441;52.190;20.910;2022-12-29T10:37:48;7.18;;;4.70;;
35330;SDS011;21441;52.190;20.910;2022-12-29T10:40:21;7.75;;;4.43;;
35330;SDS011;21441;52.190;20.910;2022-12-29T10:42:53;5.80;;;4.22;;
35330;SDS011;21441;52.190;20.910;2022-12-29T10:45:24;7.00;;;4.53;;
35330;SDS011;21441;52.190;20.910;2022-12-29T10:47:56;5.40;;;3.40;;
35330;SDS011;21441;52.190;20.910;2022-12-29T10:50:29;6.95;;;3.75;;
35330;SDS011;21441;52.190;20.910;2022-12-29T10:52:57;5.40;;;3.55;;
35330;SDS011;21441;52.190;20.910;2022-12-29T10:55:28;10.23;;;6.35;;
35330;SDS011;21441;52.190;20.910;2022-12-29T10:57:59;11.93;;;6.65;;
35330;SDS011;21441;52.190;20.910;2022-12-29T11:00:30;6.32;;;3.80;;
35330;SDS011;21441;52.190;20.910;2022-12-29T11:06:11;9.45;;;5.07;;
35330;SDS011;21441;52.190;20.910;2022-12-29T11:08:45;10.35;;;4.47;;
35330;SDS011;21441;52.190;20.910;2022-12-29T11:11:21;6.50;;;4.20;;
35330;SDS011;21441;52.190;20.910;2022-12-29T11:13:57;6.43;;;2.50;;
35330;SDS011;21441;52.190;20.910;2022-12-29T11:16:29;5.28;;;3.83;;
35330;SDS011;21441;52.190;20.910;2022-12-29T11:18:58;7.68;;;4.75;;
35330;SDS011;21441;52.190;20.910;2022-12-29T11:21:27;7.65;;;3.88;;
35330;SDS011;21441;52.190;20.910;2022-12-29T11:24:00;9.05;;;4.15;;
35330;SDS011;21441;52.190;20.910;2022-12-29T11:26:29;3.45;;;2.90;;
35330;SDS011;21441;52.190;20.910;2022-12-29T11:31:51;6.70;;;3.85;;
35330;SDS011;21441;52.190;20.910;2022-12-29T11:34:21;10.55;;;5.30;;
35330;SDS011;21441;52.190;20.910;2022-12-29T11:36:51;8.95;;;4.53;;
35330;SDS011;21441;52.190;20.910;2022-12-29T11:39:28;9.43;;;5.90;;
35330;SDS011;21441;52.190;20.910;2022-12-29T11:41:59;7.30;;;4.47;;
35330;SDS011;21441;52.190;20.910;2022-12-29T11:44:27;7.38;;;4.32;;
35330;SDS011;21441;52.190;20.910;2022-12-29T11:47:02;12.70;;;6.80;;
35330;SDS011;21441;52.190;20.910;2022-12-29T11:49:32;9.57;;;5.50;;
35330;SDS011;21441;52.190;20.910;2022-12-29T11:51:59;11.82;;;5.38;;
35330;SDS011;21441;52.190;20.910;2022-12-29T11:54:29;14.25;;;7.25;;
35330;SDS011;21441;52.190;20.910;2022-12-29T11:57:08;6.32;;;4.53;;
35330;SDS011;21441;52.190;20.910;2022-12-29T11:59:39;9.02;;;4.88;;
35330;SDS011;21441;52.190;20.910;2022-12-29T12:05:07;8.13;;;4.60;;
35330;SDS011;21441;52.190;20.910;2022-12-29T12:07:40;6.82;;;5.47;;
35330;SDS011;21441;52.190;20.910;2022-12-29T12:10:16;6.13;;;4.20;;
35330;SDS011;21441;52.190;20.910;2022-12-29T12:12:50;7.88;;;3.88;;
35330;SDS011;21441;52.190;20.910;2022-12-29T12:15:23;8.82;;;4.78;;
35330;SDS011;21441;52.190;20.910;2022-12-29T12:17:55;8.27;;;3.97;;
35330;SDS011;21441;52.190;20.910;2022-12-29T12:20:34;6.80;;;4.18;;
35330;SDS011;21441;52.190;20.910;2022-12-29T12:23:13;9.23;;;5.32;;
35330;SDS011;21441;52.190;20.910;2022-12-29T12:25:50;10.50;;;4.38;;
35330;SDS011;21441;52.190;20.910;2022-12-29T12:28:28;9.05;;;5.03;;
35330;SDS011;21441;52.190;20.910;2022-12-29T12:31:05;7.03;;;4.25;;
35330;SDS011;21441;52.190;20.910;2022-12-29T12:33:41;5.85;;;3.85;;
35330;SDS011;21441;52.190;20.910;2022-12-29T12:36:24;7.00;;;4.22;;
35330;SDS011;21441;52.190;20.910;2022-12-29T12:38:59;7.43;;;4.43;;
35330;SDS011;21441;52.190;20.910;2022-12-29T12:41:35;8.80;;;4.38;;
35330;SDS011;21441;52.190;20.910;2022-12-29T12:44:15;7.63;;;4.57;;
35330;SDS011;21441;52.190;20.910;2022-12-29T12:47:05;6.50;;;4.38;;
35330;SDS011;21441;52.190;20.910;2022-12-29T12:50:12;5.88;;;4.38;;
35330;SDS011;21441;52.190;20.910;2022-12-29T12:52:53;7.88;;;4.55;;
35330;SDS011;21441;52.190;20.910;2022-12-29T12:55:36;8.48;;;4.40;;
35330;SDS011;21441;52.190;20.910;2022-12-29T12:58:16;7.72;;;4.82;;
35330;SDS011;21441;52.190;20.910;2022-12-29T13:00:55;10.23;;;6.28;;
35330;SDS011;21441;52.190;20.910;2022-12-29T13:03:39;9.43;;;5.22;;
35330;SDS011;21441;52.190;20.910;2022-12-29T13:06:23;11.95;;;6.32;;
35330;SDS011;21441;52.190;20.910;2022-12-29T13:09:05;10.07;;;5.95;;
35330;SDS011;21441;52.190;20.910;2022-12-29T13:11:50;6.18;;;4.40;;
35330;SDS011;21441;52.190;20.910;2022-12-29T13:14:32;7.15;;;4.80;;
35330;SDS011;21441;52.190;20.910;2022-12-29T13:17:11;6.88;;;4.70;;
35330;SDS011;21441;52.190;20.910;2022-12-29T13:19:46;6.10;;;4.57;;
35330;SDS011;21441;52.190;20.910;2022-12-29T13:22:20;8.60;;;4.97;;
35330;SDS011;21441;52.190;20.910;2022-12-29T13:24:56;8.07;;;4.72;;
35330;SDS011;21441;52.190;20.910;2022-12-29T13:27:43;8.63;;;5.20;;
35330;SDS011;21441;52.190;20.910;2022-12-29T13:30:18;16.85;;;9.30;;
35330;SDS011;21441;52.190;20.910;2022-12-29T13:32:55;13.52;;;7.55;;
35330;SDS011;21441;52.190;20.910;2022-12-29T13:35:37;15.48;;;7.07;;
35330;SDS011;21441;52.190;20.910;2022-12-29T13:38:18;13.65;;;6.82;;
35330;SDS011;21441;52.190;20.910;2022-12-29T13:40:50;9.63;;;5.40;;
35330;SDS011;21441;52.190;20.910;2022-12-29T13:43:22;13.45;;;7.45;;
35330;SDS011;21441;52.190;20.910;2022-12-29T13:45:55;10.80;;;6.23;;
35330;SDS011;21441;52.190;20.910;2022-12-29T13:48:30;10.25;;;5.78;;
35330;SDS011;21441;52.190;20.910;2022-12-29T13:51:04;12.95;;;6.50;;
35330;SDS011;21441;52.190;20.910;2022-12-29T13:53:34;9.63;;;5.20;;
35330;SDS011;21441;52.190;20.910;2022-12-29T13:56:11;18.08;;;7.05;;
35330;SDS011;21441;52.190;20.910;2022-12-29T13:58:47;14.82;;;7.93;;
35330;SDS011;21441;52.190;20.910;2022-12-29T14:01:27;16.33;;;7.97;;
35330;SDS011;21441;52.190;20.910;2022-12-29T14:03:57;9.40;;;5.47;;
35330;SDS011;21441;52.190;20.910;2022-12-29T14:06:26;11.07;;;5.75;;
35330;SDS011;21441;52.190;20.910;2022-12-29T14:08:55;10.30;;;6.05;;
35330;SDS011;21441;52.190;20.910;2022-12-29T14:11:28;10.70;;;6.63;;
35330;SDS011;21441;52.190;20.910;2022-12-29T14:13:59;8.20;;;5.43;;
35330;SDS011;21441;52.190;20.910;2022-12-29T14:16:40;13.95;;;6.32;;
35330;SDS011;21441;52.190;20.910;2022-12-29T14:19:13;12.88;;;6.20;;
35330;SDS011;21441;52.190;20.910;2022-12-29T14:21:49;17.90;;;7.85;;
35330;SDS011;21441;52.190;20.910;2022-12-29T14:24:27;13.32;;;5.88;;
35330;SDS011;21441;52.190;20.910;2022-12-29T14:33:17;8.25;;;5.40;;
35330;SDS011;21441;52.190;20.910;2022-12-29T14:35:46;12.50;;;7.75;;
35330;SDS011;21441;52.190;20.910;2022-12-29T14:38:27;23.33;;;10.25;;
35330;SDS011;21441;52.190;20.910;2022-12-29T14:41:16;12.40;;;6.13;;
35330;SDS011;21441;52.190;20.910;2022-12-29T14:43:57;13.13;;;6.88;;
35330;SDS011;21441;52.190;20.910;2022-12-29T14:49:19;8.98;;;5.25;;
35330;SDS011;21441;52.190;20.910;2022-12-29T14:51:50;9.07;;;5.75;;
35330;SDS011;21441;52.190;20.910;2022-12-29T14:57:27;10.38;;;6.32;;
35330;SDS011;21441;52.190;20.910;2022-12-29T15:00:04;13.07;;;7.53;;
35330;SDS011;21441;52.190;20.910;2022-12-29T15:02:36;10.98;;;6.65;;
35330;SDS011;21441;52.190;20.910;2022-12-29T15:05:19;11.55;;;5.82;;
35330;SDS011;21441;52.190;20.910;2022-12-29T15:07:53;10.13;;;6.32;;
35330;SDS011;21441;52.190;20.910;2022-12-29T15:10:23;8.07;;;4.63;;
35330;SDS011;21441;52.190;20.910;2022-12-29T15:12:54;9.65;;;6.25;;
35330;SDS011;21441;52.190;20.910;2022-12-29T15:15:24;24.65;;;12.32;;
35330;SDS011;21441;52.190;20.910;2022-12-29T15:17:57;34.78;;;18.60;;
35330;SDS011;21441;52.190;20.910;2022-12-29T15:20:41;30.30;;;17.02;;
35330;SDS011;21441;52.190;20.910;2022-12-29T15:23:10;15.33;;;8.50;;
35330;SDS011;21441;52.190;20.910;2022-12-29T15:25:45;18.08;;;12.85;;
35330;SDS011;21441;52.190;20.910;2022-12-29T15:28:16;12.23;;;8.05;;
35330;SDS011;21441;52.190;20.910;2022-12-29T15:33:18;11.85;;;7.57;;